createdAt,value
2023-05-22T00:01:49.455Z,16.16
2023-05-22T00:04:21.602Z,16.15
2023-05-22T00:06:49.904Z,16.16
2023-05-22T00:09:18.025Z,16.14
2023-05-22T00:11:46.122Z,16.10
2023-05-22T00:14:14.487Z,16.04
2023-05-22T00:16:42.559Z,15.98
2023-05-22T00:19:16.545Z,15.93
2023-05-22T00:21:45.128Z,15.90
2023-05-22T00:24:13.092Z,15.88
2023-05-22T00:26:41.086Z,15.86
2023-05-22T00:29:09.474Z,15.84
2023-05-22T00:31:37.624Z,15.81
2023-05-22T00:34:05.592Z,15.79
2023-05-22T00:36:35.022Z,15.80
2023-05-22T00:39:02.964Z,15.80
2023-05-22T00:41:30.968Z,15.72
2023-05-22T00:43:58.872Z,15.68
2023-05-22T00:46:26.930Z,15.72
2023-05-22T00:48:54.900Z,15.76
2023-05-22T00:51:22.950Z,15.78
2023-05-22T00:53:53.183Z,15.78
2023-05-22T00:56:21.322Z,15.80
2023-05-22T00:58:49.821Z,15.81
2023-05-22T01:01:17.965Z,15.84
2023-05-22T01:03:46.941Z,15.88
2023-05-22T01:06:15.779Z,15.92
2023-05-22T01:08:44.720Z,15.99
2023-05-22T01:11:17.500Z,16.09
2023-05-22T01:13:49.804Z,16.14
2023-05-22T01:16:21.987Z,16.14
2023-05-22T01:18:55.124Z,16.12
2023-05-22T01:21:25.504Z,16.06
2023-05-22T01:24:37.312Z,16.06
2023-05-22T01:27:25.878Z,16.00
2023-05-22T01:30:03.022Z,15.89
2023-05-22T01:32:32.620Z,15.86
2023-05-22T01:35:02.120Z,15.88
2023-05-22T01:37:30.061Z,15.91
2023-05-22T01:39:58.013Z,15.93
2023-05-22T01:42:26.183Z,15.99
2023-05-22T01:44:54.974Z,15.99
2023-05-22T01:47:23.563Z,15.98
2023-05-22T01:49:53.782Z,15.90
2023-05-22T01:52:26.673Z,15.83
2023-05-22T01:54:58.358Z,15.77
2023-05-22T01:57:28.900Z,15.73
2023-05-22T02:00:02.421Z,15.70
2023-05-22T02:02:30.771Z,15.66
2023-05-22T02:05:00.994Z,15.60
2023-05-22T02:07:29.073Z,15.54
2023-05-22T02:09:57.579Z,15.46
2023-05-22T02:12:25.529Z,15.41
2023-05-22T02:14:53.441Z,15.37
2023-05-22T02:17:22.137Z,15.36
2023-05-22T02:19:50.119Z,15.36
2023-05-22T02:22:19.528Z,15.34
2023-05-22T02:24:48.100Z,15.36
2023-05-22T02:27:17.757Z,15.35
2023-05-22T02:29:45.722Z,15.36
2023-05-22T02:32:13.894Z,15.36
2023-05-22T02:34:42.793Z,15.38
2023-05-22T02:37:10.843Z,15.38
2023-05-22T02:39:40.162Z,15.34
2023-05-22T02:42:08.796Z,15.36
2023-05-22T02:44:37.006Z,15.32
2023-05-22T02:47:06.396Z,15.30
2023-05-22T02:49:34.509Z,15.30
2023-05-22T02:52:02.427Z,15.24
2023-05-22T02:54:30.433Z,15.16
2023-05-22T02:56:59.929Z,15.06
2023-05-22T02:59:27.994Z,14.92
2023-05-22T03:01:56.307Z,14.82
2023-05-22T03:04:25.214Z,14.80
2023-05-22T03:06:53.416Z,14.79
2023-05-22T03:09:21.401Z,14.72
2023-05-22T03:11:49.350Z,14.68
2023-05-22T03:14:19.542Z,14.70
2023-05-22T03:16:47.627Z,14.72
2023-05-22T03:19:16.375Z,14.74
2023-05-22T03:21:44.638Z,14.76
2023-05-22T03:24:12.741Z,14.77
2023-05-22T03:26:40.685Z,14.79
2023-05-22T03:29:12.622Z,14.82
2023-05-22T03:31:43.874Z,14.80
2023-05-22T03:34:15.051Z,14.81
2023-05-22T03:36:46.084Z,14.81
2023-05-22T03:39:17.089Z,14.83
2023-05-22T03:41:54.788Z,14.82
2023-05-22T03:44:24.678Z,14.81
2023-05-22T03:46:54.294Z,14.77
2023-05-22T03:49:22.354Z,14.72
2023-05-22T03:51:50.361Z,14.69
2023-05-22T03:54:18.349Z,14.67
2023-05-22T03:56:46.293Z,14.66
2023-05-22T03:59:14.375Z,14.66
2023-05-22T04:01:42.291Z,14.66
2023-05-22T04:04:12.208Z,14.63
2023-05-22T04:06:43.268Z,14.58
2023-05-22T04:09:14.082Z,14.50
2023-05-22T04:11:42.626Z,14.42
2023-05-22T04:14:10.661Z,14.38
2023-05-22T04:16:38.639Z,14.41
2023-05-22T04:19:06.755Z,14.41
2023-05-22T04:21:38.286Z,14.43
2023-05-22T04:24:09.523Z,14.48
2023-05-22T04:26:39.941Z,14.53
2023-05-22T04:29:10.452Z,14.57
2023-05-22T04:31:38.455Z,14.52
2023-05-22T04:34:06.591Z,14.49
2023-05-22T04:36:36.002Z,14.48
2023-05-22T04:39:05.045Z,14.49
2023-05-22T04:41:34.325Z,14.48
2023-05-22T04:44:04.051Z,14.47
2023-05-22T04:46:32.058Z,14.45
2023-05-22T04:49:02.155Z,14.43
2023-05-22T04:51:31.264Z,14.44
2023-05-22T04:54:00.814Z,14.44
2023-05-22T04:56:36.025Z,14.44
2023-05-22T04:59:08.998Z,14.53
2023-05-22T05:01:37.995Z,14.61
2023-05-22T05:04:06.381Z,14.67
2023-05-22T05:06:35.910Z,14.73
2023-05-22T05:09:05.832Z,14.80
2023-05-22T05:11:33.948Z,14.86
2023-05-22T05:14:01.927Z,14.84
2023-05-22T05:16:30.276Z,14.81
2023-05-22T05:18:58.337Z,14.79
2023-05-22T05:21:27.986Z,14.79
2023-05-22T05:23:59.199Z,14.80
2023-05-22T05:26:29.064Z,14.80
2023-05-22T05:28:57.479Z,14.77
2023-05-22T05:31:30.820Z,14.75
2023-05-22T05:34:13.499Z,14.73
2023-05-22T05:36:59.595Z,14.74
2023-05-22T05:39:27.640Z,14.76
2023-05-22T05:41:58.188Z,14.79
2023-05-22T05:44:26.432Z,14.86
2023-05-22T05:46:55.185Z,14.97
2023-05-22T05:49:23.340Z,15.07
2023-05-22T05:51:51.430Z,15.16
2023-05-22T05:54:21.760Z,15.26
2023-05-22T05:56:51.318Z,15.36
2023-05-22T05:59:20.715Z,15.40
2023-05-22T06:02:20.966Z,15.41
2023-05-22T06:04:53.865Z,15.47
2023-05-22T06:07:22.092Z,15.52
2023-05-22T06:09:53.440Z,15.55
2023-05-22T06:12:28.563Z,15.55
2023-05-22T06:14:57.947Z,15.59
2023-05-22T06:17:27.277Z,15.71
2023-05-22T06:19:55.540Z,15.85
2023-05-22T06:22:25.586Z,16.00
2023-05-22T06:24:54.871Z,16.17
2023-05-22T06:27:27.379Z,16.30
2023-05-22T06:29:57.822Z,16.37
2023-05-22T06:32:30.080Z,16.50
2023-05-22T06:34:58.881Z,16.63
2023-05-22T06:37:28.456Z,16.71
2023-05-22T06:39:56.474Z,16.78
2023-05-22T06:42:33.371Z,16.89
2023-05-22T06:45:22.815Z,16.93
2023-05-22T06:48:11.590Z,17.00
2023-05-22T06:50:49.307Z,17.00
2023-05-22T06:53:17.312Z,17.02
2023-05-22T06:55:45.526Z,16.99
2023-05-22T06:58:22.269Z,17.00
2023-05-22T07:00:54.174Z,16.98
2023-05-22T07:03:30.336Z,16.96
2023-05-22T07:06:18.540Z,16.95
2023-05-22T07:08:46.859Z,16.94
2023-05-22T07:11:14.821Z,16.99
2023-05-22T07:13:43.058Z,17.11
2023-05-22T07:16:12.618Z,17.24
2023-05-22T07:18:42.031Z,17.31
2023-05-22T07:21:10.314Z,17.36
2023-05-22T07:23:38.298Z,17.44
2023-05-22T07:26:07.745Z,17.54
2023-05-22T07:28:39.585Z,17.64
2023-05-22T07:31:15.297Z,17.77
2023-05-22T07:33:43.439Z,17.88
2023-05-22T07:36:12.230Z,17.99
2023-05-22T07:38:42.745Z,18.08
2023-05-22T07:41:10.909Z,18.12
2023-05-22T07:43:38.992Z,18.21
2023-05-22T07:46:09.402Z,18.31
2023-05-22T07:48:46.300Z,18.44
2023-05-22T07:51:14.761Z,18.62
2023-05-22T07:53:43.304Z,18.76
2023-05-22T07:56:11.351Z,18.95
2023-05-22T07:58:40.071Z,19.05
2023-05-22T08:01:09.583Z,19.21
2023-05-22T08:03:38.013Z,19.30
2023-05-22T08:06:08.574Z,19.40
2023-05-22T08:08:36.950Z,19.48
2023-05-22T08:11:05.277Z,19.55
2023-05-22T08:13:33.441Z,19.55
2023-05-22T08:16:01.788Z,19.65
2023-05-22T08:18:31.333Z,19.80
2023-05-22T08:21:00.301Z,19.86
2023-05-22T08:23:30.385Z,19.97
2023-05-22T08:25:59.296Z,20.06
2023-05-22T08:28:28.670Z,20.24
2023-05-22T08:30:56.793Z,20.39
2023-05-22T08:33:24.797Z,20.50
2023-05-22T08:35:53.865Z,20.69
2023-05-22T08:38:22.034Z,20.84
2023-05-22T08:40:51.516Z,20.96
2023-05-22T08:43:21.292Z,21.06
2023-05-22T08:45:52.387Z,21.15
2023-05-22T08:48:20.675Z,21.34
2023-05-22T08:50:48.742Z,21.58
2023-05-22T08:53:16.698Z,21.78
2023-05-22T08:55:44.804Z,21.94
2023-05-22T08:58:14.412Z,22.11
2023-05-22T09:00:42.516Z,22.26
2023-05-22T09:03:14.033Z,22.39
2023-05-22T09:05:44.205Z,22.49
2023-05-22T09:08:20.429Z,22.54
2023-05-22T09:10:49.542Z,22.57
2023-05-22T09:13:26.933Z,22.62
2023-05-22T09:15:59.899Z,22.71
2023-05-22T09:18:31.060Z,22.65
2023-05-22T09:21:00.042Z,22.73
2023-05-22T09:23:28.990Z,22.83
2023-05-22T09:25:57.276Z,22.93
2023-05-22T09:28:26.856Z,22.76
2023-05-22T09:30:55.503Z,22.57
2023-05-22T09:33:26.582Z,22.39
2023-05-22T09:35:54.832Z,22.30
2023-05-22T09:38:26.730Z,22.01
2023-05-22T09:40:56.161Z,22.00
2023-05-22T09:43:26.480Z,21.97
2023-05-22T09:45:58.012Z,21.78
2023-05-22T09:48:26.721Z,21.69
2023-05-22T09:50:54.937Z,21.78
2023-05-22T09:53:26.992Z,21.83
2023-05-22T09:55:55.988Z,21.97
2023-05-22T09:58:24.013Z,21.95
2023-05-22T10:00:54.589Z,22.06
2023-05-22T10:03:24.253Z,22.26
2023-05-22T10:08:26.125Z,22.49
2023-05-22T10:10:56.777Z,22.60
2023-05-22T10:13:25.181Z,22.70
2023-05-22T10:15:55.390Z,22.62
2023-05-22T10:18:26.201Z,22.61
2023-05-22T10:20:57.268Z,22.65
2023-05-22T10:23:25.677Z,22.77
2023-05-22T10:25:53.655Z,22.79
2023-05-22T10:28:24.886Z,22.80
2023-05-22T10:30:57.675Z,23.04
2023-05-22T10:33:46.087Z,23.08
2023-05-22T10:36:19.875Z,23.15
2023-05-22T10:39:02.377Z,23.35
2023-05-22T10:41:32.184Z,23.40
2023-05-22T10:44:01.102Z,23.47
2023-05-22T10:46:33.746Z,23.51
2023-05-22T10:49:01.987Z,23.82
2023-05-22T10:51:31.717Z,23.96
2023-05-22T10:54:01.217Z,24.18
2023-05-22T10:56:34.066Z,24.43
2023-05-22T10:59:05.002Z,24.67
2023-05-22T11:01:38.700Z,24.89
2023-05-22T11:04:22.613Z,25.03
2023-05-22T11:07:04.345Z,25.06
2023-05-22T11:09:32.900Z,25.24
2023-05-22T11:12:17.952Z,25.48
2023-05-22T11:14:50.522Z,25.68
2023-05-22T11:17:23.171Z,25.68
2023-05-22T11:20:05.249Z,25.83
2023-05-22T11:22:35.886Z,25.76
2023-05-22T11:25:08.983Z,25.67
2023-05-22T11:27:37.963Z,25.66
2023-05-22T11:30:07.333Z,25.70
2023-05-22T11:32:38.954Z,25.51
2023-05-22T11:35:10.731Z,25.41
2023-05-22T11:37:42.440Z,25.68
2023-05-22T11:40:12.108Z,25.79
2023-05-22T11:42:40.342Z,26.00
2023-05-22T11:45:10.966Z,25.92
2023-05-22T11:47:40.577Z,26.05
2023-05-22T11:50:11.805Z,26.23
2023-05-22T11:52:40.578Z,26.14
2023-05-22T11:55:09.817Z,26.10
2023-05-22T11:57:38.304Z,26.28
2023-05-22T12:00:09.164Z,26.34
2023-05-22T12:02:45.409Z,26.27
2023-05-22T12:05:14.107Z,26.27
2023-05-22T12:07:42.578Z,26.41
2023-05-22T12:10:11.502Z,26.54
2023-05-22T12:12:41.313Z,26.86
2023-05-22T12:15:10.928Z,26.96
2023-05-22T12:17:41.643Z,26.91
2023-05-22T12:20:13.823Z,27.08
2023-05-22T12:22:44.797Z,26.93
2023-05-22T12:25:17.236Z,26.99
2023-05-22T12:27:45.884Z,27.07
2023-05-22T12:30:14.902Z,27.03
2023-05-22T12:32:47.829Z,26.82
2023-05-22T12:35:17.991Z,26.98
2023-05-22T12:37:49.401Z,26.88
2023-05-22T12:40:17.796Z,26.89
2023-05-22T12:42:46.039Z,27.02
2023-05-22T12:45:14.283Z,27.27
2023-05-22T12:47:42.282Z,27.16
2023-05-22T12:50:10.575Z,27.41
2023-05-22T12:52:40.394Z,27.38
2023-05-22T12:55:10.267Z,27.54
2023-05-22T12:57:38.417Z,27.69
2023-05-22T13:00:07.800Z,27.60
2023-05-22T13:02:35.866Z,27.78
2023-05-22T13:05:04.398Z,27.78
2023-05-22T13:07:32.757Z,27.69
2023-05-22T13:10:03.906Z,27.58
2023-05-22T13:12:32.434Z,27.53
2023-05-22T13:15:00.612Z,27.33
2023-05-22T13:17:28.948Z,27.30
2023-05-22T13:19:57.111Z,27.31
2023-05-22T13:22:25.517Z,27.16
2023-05-22T13:24:53.509Z,27.25
2023-05-22T13:27:22.999Z,27.42
2023-05-22T13:29:51.201Z,27.41
2023-05-22T13:32:20.161Z,27.58
2023-05-22T13:34:48.292Z,27.63
2023-05-22T13:37:16.464Z,27.65
2023-05-22T13:39:44.982Z,27.62
2023-05-22T13:42:13.938Z,27.59
2023-05-22T13:44:43.292Z,27.69
2023-05-22T13:47:11.807Z,27.73
2023-05-22T13:49:40.149Z,27.65
2023-05-22T13:52:08.419Z,27.65
2023-05-22T13:54:36.510Z,27.80
2023-05-22T13:57:04.595Z,28.07
2023-05-22T13:59:33.204Z,28.09
2023-05-22T14:02:02.782Z,28.27
2023-05-22T14:04:31.006Z,28.50
2023-05-22T14:06:59.160Z,28.72
2023-05-22T14:09:27.365Z,28.82
2023-05-22T14:11:56.343Z,29.01
2023-05-22T14:14:24.716Z,29.08
2023-05-22T14:16:52.906Z,29.13
2023-05-22T14:19:22.486Z,29.19
2023-05-22T14:21:52.310Z,29.14
2023-05-22T14:24:20.733Z,29.22
2023-05-22T14:26:48.753Z,29.16
2023-05-22T14:29:16.908Z,29.16
2023-05-22T14:31:45.422Z,28.93
2023-05-22T14:34:13.863Z,28.87
2023-05-22T14:36:43.269Z,28.85
2023-05-22T14:39:11.515Z,28.62
2023-05-22T14:41:41.159Z,28.59
2023-05-22T14:44:09.421Z,28.56
2023-05-22T14:46:37.760Z,28.60
2023-05-22T14:49:05.925Z,28.77
2023-05-22T14:51:33.981Z,28.92
2023-05-22T14:54:03.652Z,29.13
2023-05-22T14:56:31.720Z,29.29
2023-05-22T14:59:00.071Z,29.38
2023-05-22T15:01:28.218Z,29.30
2023-05-22T15:03:56.260Z,29.25
2023-05-22T15:06:24.344Z,29.17
2023-05-22T15:08:52.420Z,29.08
2023-05-22T15:11:22.663Z,29.00
2023-05-22T15:13:50.765Z,28.76
2023-05-22T15:16:18.769Z,28.55
2023-05-22T15:18:47.055Z,28.55
2023-05-22T15:21:15.465Z,28.46
2023-05-22T15:23:43.553Z,28.47
2023-05-22T15:26:12.184Z,28.49
2023-05-22T15:28:42.894Z,28.35
2023-05-22T15:31:12.100Z,28.32
2023-05-22T15:33:40.190Z,28.26
2023-05-22T15:36:09.229Z,28.32
2023-05-22T15:38:38.491Z,28.26
2023-05-22T15:41:08.957Z,28.17
2023-05-22T15:43:36.963Z,28.20
2023-05-22T15:46:08.647Z,28.15
2023-05-22T15:48:36.852Z,27.99
2023-05-22T15:51:07.116Z,27.81
2023-05-22T15:53:35.568Z,27.71
2023-05-22T15:56:03.581Z,27.44
2023-05-22T15:58:31.826Z,27.33
2023-05-22T16:01:02.465Z,27.32
2023-05-22T16:03:32.106Z,27.37
2023-05-22T16:06:00.440Z,27.07
2023-05-22T16:08:28.690Z,27.15
2023-05-22T16:10:59.229Z,26.86
2023-05-22T16:13:27.769Z,26.35
2023-05-22T16:15:55.916Z,25.78
2023-05-22T16:18:33.345Z,25.90
2023-05-22T16:21:02.725Z,25.89
2023-05-22T16:23:30.733Z,25.86
2023-05-22T16:26:01.471Z,25.51
2023-05-22T16:28:29.564Z,25.15
2023-05-22T16:30:57.569Z,25.09
2023-05-22T16:33:28.108Z,25.00
2023-05-22T16:35:57.429Z,24.54
2023-05-22T16:38:27.345Z,23.91
2023-05-22T16:40:55.815Z,23.73
2023-05-22T16:43:23.869Z,23.63
2023-05-22T16:45:53.272Z,23.71
2023-05-22T16:48:21.392Z,23.95
2023-05-22T16:50:50.172Z,24.03
2023-05-22T16:53:20.073Z,24.26
2023-05-22T16:55:49.677Z,24.48
2023-05-22T16:58:17.734Z,24.55
2023-05-22T17:00:45.943Z,24.50
2023-05-22T17:03:14.164Z,24.26
2023-05-22T17:05:42.588Z,23.93
2023-05-22T17:08:11.385Z,23.82
2023-05-22T17:10:39.345Z,23.78
2023-05-22T17:13:09.251Z,23.85
2023-05-22T17:15:37.402Z,23.77
2023-05-22T17:18:05.887Z,23.69
2023-05-22T17:20:34.174Z,23.67
2023-05-22T17:23:02.180Z,23.58
2023-05-22T17:25:31.371Z,23.49
2023-05-22T17:27:59.584Z,23.33
2023-05-22T17:30:29.472Z,23.41
2023-05-22T17:32:58.042Z,23.38
2023-05-22T17:35:26.392Z,23.44
2023-05-22T17:37:54.512Z,23.45
2023-05-22T17:42:53.657Z,23.27
2023-05-22T17:45:21.773Z,23.11
2023-05-22T17:47:51.149Z,23.21
2023-05-22T17:50:21.078Z,23.28
2023-05-22T17:52:49.214Z,23.38
2023-05-22T17:55:17.647Z,23.25
2023-05-22T17:57:46.279Z,23.03
2023-05-22T18:00:15.866Z,22.89
2023-05-22T18:02:44.300Z,23.01
2023-05-22T18:05:13.815Z,23.07
2023-05-22T18:07:41.875Z,23.13
2023-05-22T18:10:11.628Z,23.14
2023-05-22T18:12:42.352Z,23.07
2023-05-22T18:15:12.228Z,22.84
2023-05-22T18:17:41.236Z,22.76
2023-05-22T18:20:11.917Z,22.61
2023-05-22T18:22:41.452Z,22.50
2023-05-22T18:25:11.107Z,22.38
2023-05-22T18:27:39.165Z,22.16
2023-05-22T18:30:09.014Z,21.89
2023-05-22T18:32:37.301Z,21.75
2023-05-22T18:35:06.036Z,21.62
2023-05-22T18:37:34.316Z,21.69
2023-05-22T18:40:09.467Z,21.72
2023-05-22T18:42:38.038Z,21.77
2023-05-22T18:45:07.725Z,21.61
2023-05-22T18:47:35.926Z,21.56
2023-05-22T18:50:08.522Z,21.40
2023-05-22T18:52:37.118Z,21.25
2023-05-22T18:55:10.494Z,21.11
2023-05-22T18:57:39.048Z,21.09
2023-05-22T19:00:10.235Z,20.98
2023-05-22T19:02:40.032Z,20.95
2023-05-22T19:05:08.819Z,20.86
2023-05-22T19:07:36.980Z,20.72
2023-05-22T19:10:08.989Z,20.64
2023-05-22T19:12:55.279Z,20.53
2023-05-22T19:15:23.727Z,20.52
2023-05-22T19:17:51.973Z,20.50
2023-05-22T19:20:20.011Z,20.48
2023-05-22T19:22:48.452Z,20.38
2023-05-22T19:25:21.061Z,20.31
2023-05-22T19:27:49.470Z,20.33
2023-05-22T19:30:19.032Z,20.16
2023-05-22T19:32:49.605Z,20.17
2023-05-22T19:35:17.899Z,20.17
2023-05-22T19:37:46.809Z,20.01
2023-05-22T19:40:15.014Z,20.00
2023-05-22T19:42:45.842Z,19.91
2023-05-22T19:45:17.701Z,19.84
2023-05-22T19:47:45.838Z,19.86
2023-05-22T19:50:14.145Z,19.81
2023-05-22T19:52:44.975Z,19.65
2023-05-22T19:55:13.035Z,19.70
2023-05-22T19:57:44.335Z,19.71
2023-05-22T20:00:15.051Z,19.62
2023-05-22T20:02:43.318Z,19.57
2023-05-22T20:05:13.088Z,19.54
2023-05-22T20:07:42.452Z,19.46
2023-05-22T20:10:11.358Z,19.41
2023-05-22T20:12:39.571Z,19.25
2023-05-22T20:15:10.584Z,19.18
2023-05-22T20:17:41.707Z,19.04
2023-05-22T20:20:11.474Z,19.07
2023-05-22T20:22:39.913Z,18.98
2023-05-22T20:25:08.821Z,19.09
2023-05-22T20:27:36.884Z,19.15
2023-05-22T20:30:06.621Z,19.18
2023-05-22T20:32:35.177Z,19.20
2023-05-22T20:35:07.111Z,19.04
2023-05-22T20:37:35.823Z,19.03
2023-05-22T20:40:04.372Z,18.84
2023-05-22T20:42:32.847Z,18.83
2023-05-22T20:45:00.876Z,18.77
2023-05-22T20:47:28.944Z,18.83
2023-05-22T20:49:57.079Z,18.83
2023-05-22T20:52:30.344Z,18.81
2023-05-22T20:54:58.423Z,18.77
2023-05-22T20:57:27.434Z,18.65
2023-05-22T20:59:56.062Z,18.73
2023-05-22T21:02:24.045Z,18.75
2023-05-22T21:04:53.568Z,18.75
2023-05-22T21:07:21.902Z,18.71
2023-05-22T21:09:51.271Z,18.76
2023-05-22T21:12:19.329Z,18.65
2023-05-22T21:14:47.391Z,18.68
2023-05-22T21:17:16.323Z,18.74
2023-05-22T21:19:44.640Z,18.72
2023-05-22T21:22:12.605Z,18.72
2023-05-22T21:24:40.568Z,18.69
2023-05-22T21:27:10.247Z,18.65
2023-05-22T21:29:38.503Z,18.70
2023-05-22T21:32:07.221Z,18.62
2023-05-22T21:34:35.685Z,18.67
2023-05-22T21:37:03.858Z,18.69
2023-05-22T21:39:37.864Z,18.67
2023-05-22T21:42:07.031Z,18.71
2023-05-22T21:44:38.758Z,18.74
2023-05-22T21:47:09.456Z,18.73
2023-05-22T21:49:39.597Z,18.76
2023-05-22T21:54:56.097Z,18.79
2023-05-22T21:57:24.542Z,18.83
2023-05-22T21:59:56.183Z,18.82
2023-05-22T22:02:26.117Z,18.73
2023-05-22T22:04:54.217Z,18.68
2023-05-22T22:07:22.276Z,18.70
2023-05-22T22:09:50.798Z,18.76
2023-05-22T22:12:18.818Z,18.85
2023-05-22T22:14:46.883Z,18.93
2023-05-22T22:17:16.898Z,18.97
2023-05-22T22:19:45.687Z,19.00
2023-05-22T22:22:13.764Z,19.01
2023-05-22T22:24:41.780Z,18.95
2023-05-22T22:27:09.819Z,18.86
2023-05-22T22:29:38.537Z,18.87
2023-05-22T22:32:06.973Z,18.90
2023-05-22T22:34:36.606Z,18.93
2023-05-22T22:37:04.994Z,18.88
2023-05-22T22:39:32.964Z,18.81
2023-05-22T22:42:05.178Z,18.73
2023-05-22T22:44:33.271Z,18.70
2023-05-22T22:47:02.901Z,18.63
2023-05-22T22:49:31.622Z,18.60
2023-05-22T22:52:00.941Z,18.52
2023-05-22T22:54:29.116Z,18.42
2023-05-22T22:56:57.131Z,18.33
2023-05-22T22:59:25.278Z,18.24
2023-05-22T23:01:53.611Z,18.17
2023-05-22T23:04:21.889Z,18.16
2023-05-22T23:06:49.941Z,18.20
2023-05-22T23:09:20.230Z,18.25
2023-05-22T23:11:48.230Z,18.30
2023-05-22T23:14:17.821Z,18.28
2023-05-22T23:16:46.384Z,18.25
2023-05-22T23:19:15.352Z,18.31
2023-05-22T23:21:43.367Z,18.37
2023-05-22T23:24:11.434Z,18.36
2023-05-22T23:26:42.271Z,18.32
2023-05-22T23:29:10.261Z,18.29
2023-05-22T23:31:40.453Z,18.24
2023-05-22T23:34:08.591Z,18.17
2023-05-22T23:36:37.076Z,18.19
2023-05-22T23:39:06.478Z,18.18
2023-05-22T23:41:35.464Z,18.09
2023-05-22T23:44:05.180Z,18.02
2023-05-22T23:46:33.415Z,18.03
2023-05-22T23:49:01.448Z,18.07
2023-05-22T23:51:29.679Z,18.11
2023-05-22T23:53:57.664Z,18.10
2023-05-22T23:56:26.496Z,18.04
2023-05-22T23:58:54.482Z,18.00
